sensor_id;sensor_type;location;lat;lon;timestamp;P1;durP1;ratioP1;P2;durP2;ratioP2
10945;SDS011;5525;42.648;23.368;2023-01-15T00:01:23;17.30;;;11.00;;
10945;SDS011;5525;42.648;23.368;2023-01-15T00:03:54;19.45;;;11.32;;
10945;SDS011;5525;42.648;23.368;2023-01-15T00:06:22;17.42;;;10.93;;
10945;SDS011;5525;42.648;23.368;2023-01-15T00:08:50;17.73;;;10.15;;
10945;SDS011;5525;42.648;23.368;2023-01-15T00:11:17;20.02;;;11.15;;
10945;SDS011;5525;42.648;23.368;2023-01-15T00:13:44;17.05;;;10.13;;
10945;SDS011;5525;42.648;23.368;2023-01-15T00:16:13;16.15;;;9.80;;
10945;SDS011;5525;42.648;23.368;2023-01-15T00:18:41;17.38;;;10.10;;
10945;SDS011;5525;42.648;23.368;2023-01-15T00:21:10;17.50;;;10.52;;
10945;SDS011;5525;42.648;23.368;2023-01-15T00:23:38;17.95;;;10.43;;
10945;SDS011;5525;42.648;23.368;2023-01-15T00:26:26;17.45;;;10.40;;
10945;SDS011;5525;42.648;23.368;2023-01-15T00:29:11;19.65;;;10.82;;
10945;SDS011;5525;42.648;23.368;2023-01-15T00:31:38;16.00;;;10.05;;
10945;SDS011;5525;42.648;23.368;2023-01-15T00:34:05;16.60;;;10.32;;
10945;SDS011;5525;42.648;23.368;2023-01-15T00:36:33;17.05;;;10.13;;
10945;SDS011;5525;42.648;23.368;2023-01-15T00:39:02;17.70;;;10.30;;
10945;SDS011;5525;42.648;23.368;2023-01-15T00:41:29;18.73;;;11.00;;
10945;SDS011;5525;42.648;23.368;2023-01-15T00:43:55;20.08;;;11.90;;
10945;SDS011;5525;42.648;23.368;2023-01-15T00:46:22;16.48;;;10.82;;
10945;SDS011;5525;42.648;23.368;2023-01-15T00:48:49;19.00;;;10.85;;
10945;SDS011;5525;42.648;23.368;2023-01-15T00:51:16;16.02;;;10.50;;
10945;SDS011;5525;42.648;23.368;2023-01-15T00:53:46;18.67;;;11.02;;
10945;SDS011;5525;42.648;23.368;2023-01-15T00:56:12;15.88;;;10.18;;
10945;SDS011;5525;42.648;23.368;2023-01-15T00:58:39;18.05;;;10.35;;
10945;SDS011;5525;42.648;23.368;2023-01-15T01:01:06;17.23;;;10.68;;
10945;SDS011;5525;42.648;23.368;2023-01-15T01:03:33;16.05;;;10.43;;
10945;SDS011;5525;42.648;23.368;2023-01-15T01:06:00;18.98;;;10.30;;
10945;SDS011;5525;42.648;23.368;2023-01-15T01:08:28;18.73;;;10.55;;
10945;SDS011;5525;42.648;23.368;2023-01-15T01:11:03;18.40;;;11.98;;
10945;SDS011;5525;42.648;23.368;2023-01-15T01:13:31;21.30;;;12.60;;
10945;SDS011;5525;42.648;23.368;2023-01-15T01:15:58;21.13;;;12.30;;
10945;SDS011;5525;42.648;23.368;2023-01-15T01:18:25;18.00;;;11.43;;
10945;SDS011;5525;42.648;23.368;2023-01-15T01:20:52;20.67;;;13.15;;
10945;SDS011;5525;42.648;23.368;2023-01-15T01:23:19;19.92;;;12.05;;
10945;SDS011;5525;42.648;23.368;2023-01-15T01:25:48;19.70;;;11.85;;
10945;SDS011;5525;42.648;23.368;2023-01-15T01:28:16;18.10;;;11.27;;
10945;SDS011;5525;42.648;23.368;2023-01-15T01:30:42;19.38;;;11.82;;
10945;SDS011;5525;42.648;23.368;2023-01-15T01:33:09;20.90;;;12.40;;
10945;SDS011;5525;42.648;23.368;2023-01-15T01:35:36;19.98;;;12.07;;
10945;SDS011;5525;42.648;23.368;2023-01-15T01:38:03;18.80;;;12.13;;
10945;SDS011;5525;42.648;23.368;2023-01-15T01:40:30;21.27;;;12.15;;
10945;SDS011;5525;42.648;23.368;2023-01-15T01:42:56;19.90;;;11.95;;
10945;SDS011;5525;42.648;23.368;2023-01-15T01:45:27;21.55;;;12.07;;
10945;SDS011;5525;42.648;23.368;2023-01-15T01:47:58;19.98;;;12.02;;
10945;SDS011;5525;42.648;23.368;2023-01-15T01:50:28;18.75;;;12.10;;
10945;SDS011;5525;42.648;23.368;2023-01-15T01:52:57;20.08;;;12.20;;
10945;SDS011;5525;42.648;23.368;2023-01-15T01:55:28;22.52;;;12.82;;
10945;SDS011;5525;42.648;23.368;2023-01-15T01:58:00;22.55;;;13.07;;
10945;SDS011;5525;42.648;23.368;2023-01-15T02:00:30;20.35;;;12.18;;
10945;SDS011;5525;42.648;23.368;2023-01-15T02:02:58;21.83;;;12.75;;
10945;SDS011;5525;42.648;23.368;2023-01-15T02:05:28;21.15;;;12.18;;
10945;SDS011;5525;42.648;23.368;2023-01-15T02:07:56;20.80;;;13.05;;
10945;SDS011;5525;42.648;23.368;2023-01-15T02:10:23;24.08;;;13.05;;
10945;SDS011;5525;42.648;23.368;2023-01-15T02:12:52;23.35;;;13.43;;
10945;SDS011;5525;42.648;23.368;2023-01-15T02:15:25;22.10;;;13.10;;
10945;SDS011;5525;42.648;23.368;2023-01-15T02:18:01;22.35;;;13.60;;
10945;SDS011;5525;42.648;23.368;2023-01-15T02:20:35;21.83;;;13.52;;
10945;SDS011;5525;42.648;23.368;2023-01-15T02:23:11;24.15;;;12.93;;
10945;SDS011;5525;42.648;23.368;2023-01-15T02:25:53;21.83;;;13.02;;
10945;SDS011;5525;42.648;23.368;2023-01-15T02:28:30;23.52;;;12.85;;
10945;SDS011;5525;42.648;23.368;2023-01-15T02:31:00;20.08;;;12.23;;
10945;SDS011;5525;42.648;23.368;2023-01-15T02:33:33;22.55;;;13.40;;
10945;SDS011;5525;42.648;23.368;2023-01-15T02:36:02;21.30;;;12.80;;
10945;SDS011;5525;42.648;23.368;2023-01-15T02:38:35;19.55;;;12.68;;
10945;SDS011;5525;42.648;23.368;2023-01-15T02:41:05;22.58;;;12.80;;
10945;SDS011;5525;42.648;23.368;2023-01-15T02:43:42;20.20;;;13.13;;
10945;SDS011;5525;42.648;23.368;2023-01-15T02:46:12;20.42;;;12.77;;
10945;SDS011;5525;42.648;23.368;2023-01-15T02:48:40;20.42;;;12.68;;
10945;SDS011;5525;42.648;23.368;2023-01-15T02:51:11;19.35;;;12.45;;
10945;SDS011;5525;42.648;23.368;2023-01-15T02:53:41;22.10;;;13.20;;
10945;SDS011;5525;42.648;23.368;2023-01-15T02:56:12;20.67;;;13.18;;
10945;SDS011;5525;42.648;23.368;2023-01-15T02:58:44;21.33;;;13.18;;
10945;SDS011;5525;42.648;23.368;2023-01-15T03:01:14;20.85;;;12.82;;
10945;SDS011;5525;42.648;23.368;2023-01-15T03:03:45;22.25;;;12.63;;
10945;SDS011;5525;42.648;23.368;2023-01-15T03:06:18;19.38;;;12.10;;
10945;SDS011;5525;42.648;23.368;2023-01-15T03:08:53;21.63;;;12.15;;
10945;SDS011;5525;42.648;23.368;2023-01-15T03:11:19;19.13;;;11.82;;
10945;SDS011;5525;42.648;23.368;2023-01-15T03:13:49;22.80;;;12.65;;
10945;SDS011;5525;42.648;23.368;2023-01-15T03:16:23;21.52;;;11.88;;
10945;SDS011;5525;42.648;23.368;2023-01-15T03:18:59;21.38;;;11.95;;
10945;SDS011;5525;42.648;23.368;2023-01-15T03:21:34;19.58;;;11.55;;
10945;SDS011;5525;42.648;23.368;2023-01-15T03:24:07;20.95;;;12.80;;
10945;SDS011;5525;42.648;23.368;2023-01-15T03:26:36;22.20;;;12.63;;
10945;SDS011;5525;42.648;23.368;2023-01-15T03:29:04;20.42;;;12.95;;
10945;SDS011;5525;42.648;23.368;2023-01-15T03:31:33;21.70;;;12.70;;
10945;SDS011;5525;42.648;23.368;2023-01-15T03:34:01;20.58;;;12.35;;
10945;SDS011;5525;42.648;23.368;2023-01-15T03:36:31;19.38;;;12.32;;
10945;SDS011;5525;42.648;23.368;2023-01-15T03:38:58;22.52;;;11.85;;
10945;SDS011;5525;42.648;23.368;2023-01-15T03:41:26;18.75;;;11.98;;
10945;SDS011;5525;42.648;23.368;2023-01-15T03:44:01;22.50;;;12.65;;
10945;SDS011;5525;42.648;23.368;2023-01-15T03:46:44;20.63;;;12.45;;
10945;SDS011;5525;42.648;23.368;2023-01-15T03:49:20;19.65;;;11.82;;
10945;SDS011;5525;42.648;23.368;2023-01-15T03:51:58;18.45;;;11.13;;
10945;SDS011;5525;42.648;23.368;2023-01-15T03:54:31;18.55;;;11.43;;
10945;SDS011;5525;42.648;23.368;2023-01-15T03:57:08;21.30;;;11.55;;
10945;SDS011;5525;42.648;23.368;2023-01-15T03:59:43;19.33;;;11.88;;
10945;SDS011;5525;42.648;23.368;2023-01-15T04:02:15;20.48;;;11.68;;
10945;SDS011;5525;42.648;23.368;2023-01-15T04:04:44;18.70;;;12.23;;
10945;SDS011;5525;42.648;23.368;2023-01-15T04:07:12;20.80;;;10.85;;
10945;SDS011;5525;42.648;23.368;2023-01-15T04:09:40;20.75;;;11.05;;
10945;SDS011;5525;42.648;23.368;2023-01-15T04:12:07;19.50;;;11.15;;
10945;SDS011;5525;42.648;23.368;2023-01-15T04:14:34;17.75;;;9.98;;
10945;SDS011;5525;42.648;23.368;2023-01-15T04:17:02;16.65;;;11.10;;
10945;SDS011;5525;42.648;23.368;2023-01-15T04:19:29;17.13;;;10.45;;
10945;SDS011;5525;42.648;23.368;2023-01-15T04:21:56;15.02;;;8.95;;
10945;SDS011;5525;42.648;23.368;2023-01-15T04:24:23;17.98;;;9.80;;
10945;SDS011;5525;42.648;23.368;2023-01-15T04:26:50;18.27;;;10.32;;
10945;SDS011;5525;42.648;23.368;2023-01-15T04:29:17;18.92;;;10.32;;
10945;SDS011;5525;42.648;23.368;2023-01-15T04:31:44;16.15;;;10.55;;
10945;SDS011;5525;42.648;23.368;2023-01-15T04:34:12;17.42;;;10.63;;
10945;SDS011;5525;42.648;23.368;2023-01-15T04:36:39;16.15;;;10.02;;
10945;SDS011;5525;42.648;23.368;2023-01-15T04:39:06;17.25;;;10.63;;
10945;SDS011;5525;42.648;23.368;2023-01-15T04:41:33;16.95;;;10.50;;
10945;SDS011;5525;42.648;23.368;2023-01-15T04:44:17;17.95;;;11.02;;
10945;SDS011;5525;42.648;23.368;2023-01-15T04:46:44;18.17;;;10.00;;
10945;SDS011;5525;42.648;23.368;2023-01-15T04:49:14;15.70;;;10.43;;
10945;SDS011;5525;42.648;23.368;2023-01-15T04:51:42;14.77;;;9.80;;
10945;SDS011;5525;42.648;23.368;2023-01-15T04:54:10;17.85;;;10.60;;
10945;SDS011;5525;42.648;23.368;2023-01-15T04:56:38;12.90;;;8.43;;
10945;SDS011;5525;42.648;23.368;2023-01-15T04:59:07;15.27;;;9.27;;
10945;SDS011;5525;42.648;23.368;2023-01-15T05:01:34;14.93;;;8.80;;
10945;SDS011;5525;42.648;23.368;2023-01-15T05:04:02;17.20;;;9.80;;
10945;SDS011;5525;42.648;23.368;2023-01-15T05:06:30;19.70;;;10.48;;
10945;SDS011;5525;42.648;23.368;2023-01-15T05:08:57;17.92;;;10.63;;
10945;SDS011;5525;42.648;23.368;2023-01-15T05:11:24;15.93;;;10.40;;
10945;SDS011;5525;42.648;23.368;2023-01-15T05:13:52;20.70;;;11.15;;
10945;SDS011;5525;42.648;23.368;2023-01-15T05:16:20;18.85;;;12.07;;
10945;SDS011;5525;42.648;23.368;2023-01-15T05:18:49;18.48;;;11.55;;
10945;SDS011;5525;42.648;23.368;2023-01-15T05:21:17;19.90;;;13.13;;
10945;SDS011;5525;42.648;23.368;2023-01-15T05:23:47;20.60;;;12.57;;
10945;SDS011;5525;42.648;23.368;2023-01-15T05:26:15;20.88;;;11.98;;
10945;SDS011;5525;42.648;23.368;2023-01-15T05:28:42;20.15;;;11.90;;
10945;SDS011;5525;42.648;23.368;2023-01-15T05:31:10;23.08;;;13.38;;
10945;SDS011;5525;42.648;23.368;2023-01-15T05:33:38;24.27;;;13.07;;
10945;SDS011;5525;42.648;23.368;2023-01-15T05:36:06;26.20;;;12.68;;
10945;SDS011;5525;42.648;23.368;2023-01-15T05:38:35;22.13;;;12.30;;
10945;SDS011;5525;42.648;23.368;2023-01-15T05:41:04;23.20;;;11.57;;
10945;SDS011;5525;42.648;23.368;2023-01-15T05:43:52;25.27;;;14.05;;
10945;SDS011;5525;42.648;23.368;2023-01-15T05:46:20;20.90;;;12.38;;
10945;SDS011;5525;42.648;23.368;2023-01-15T05:48:47;19.95;;;11.93;;
10945;SDS011;5525;42.648;23.368;2023-01-15T05:51:14;17.48;;;12.30;;
10945;SDS011;5525;42.648;23.368;2023-01-15T05:53:41;20.70;;;11.85;;
10945;SDS011;5525;42.648;23.368;2023-01-15T05:56:10;26.25;;;15.38;;
10945;SDS011;5525;42.648;23.368;2023-01-15T05:58:37;61.03;;;29.67;;
10945;SDS011;5525;42.648;23.368;2023-01-15T06:01:07;39.13;;;20.20;;
10945;SDS011;5525;42.648;23.368;2023-01-15T06:03:34;36.28;;;18.00;;
10945;SDS011;5525;42.648;23.368;2023-01-15T06:06:02;27.05;;;15.93;;
10945;SDS011;5525;42.648;23.368;2023-01-15T06:08:29;31.70;;;17.88;;
10945;SDS011;5525;42.648;23.368;2023-01-15T06:10:56;38.45;;;19.95;;
10945;SDS011;5525;42.648;23.368;2023-01-15T06:13:24;43.47;;;24.77;;
10945;SDS011;5525;42.648;23.368;2023-01-15T06:15:51;24.23;;;14.25;;
10945;SDS011;5525;42.648;23.368;2023-01-15T06:18:18;21.83;;;13.52;;
10945;SDS011;5525;42.648;23.368;2023-01-15T06:20:45;22.50;;;12.75;;
10945;SDS011;5525;42.648;23.368;2023-01-15T06:23:11;24.33;;;14.77;;
10945;SDS011;5525;42.648;23.368;2023-01-15T06:25:38;27.58;;;16.77;;
10945;SDS011;5525;42.648;23.368;2023-01-15T06:28:06;30.40;;;16.45;;
10945;SDS011;5525;42.648;23.368;2023-01-15T06:30:36;24.40;;;14.90;;
10945;SDS011;5525;42.648;23.368;2023-01-15T06:33:04;20.77;;;12.50;;
10945;SDS011;5525;42.648;23.368;2023-01-15T06:35:30;23.08;;;12.93;;
10945;SDS011;5525;42.648;23.368;2023-01-15T06:37:57;21.00;;;13.20;;
10945;SDS011;5525;42.648;23.368;2023-01-15T06:40:24;20.60;;;12.27;;
10945;SDS011;5525;42.648;23.368;2023-01-15T06:42:53;22.25;;;12.25;;
10945;SDS011;5525;42.648;23.368;2023-01-15T06:45:41;19.30;;;12.48;;
10945;SDS011;5525;42.648;23.368;2023-01-15T06:48:26;21.70;;;13.32;;
10945;SDS011;5525;42.648;23.368;2023-01-15T06:50:53;21.83;;;12.68;;
10945;SDS011;5525;42.648;23.368;2023-01-15T06:53:20;21.23;;;11.90;;
10945;SDS011;5525;42.648;23.368;2023-01-15T06:55:46;21.60;;;12.10;;
10945;SDS011;5525;42.648;23.368;2023-01-15T06:58:14;18.95;;;12.65;;
10945;SDS011;5525;42.648;23.368;2023-01-15T07:00:42;18.77;;;12.18;;
10945;SDS011;5525;42.648;23.368;2023-01-15T07:03:11;18.88;;;12.18;;
10945;SDS011;5525;42.648;23.368;2023-01-15T07:05:38;19.83;;;12.38;;
10945;SDS011;5525;42.648;23.368;2023-01-15T07:08:05;18.65;;;12.27;;
10945;SDS011;5525;42.648;23.368;2023-01-15T07:10:32;21.88;;;11.95;;
10945;SDS011;5525;42.648;23.368;2023-01-15T07:13:00;16.85;;;11.90;;
10945;SDS011;5525;42.648;23.368;2023-01-15T07:15:27;22.23;;;11.88;;
10945;SDS011;5525;42.648;23.368;2023-01-15T07:17:56;22.40;;;11.68;;
10945;SDS011;5525;42.648;23.368;2023-01-15T07:20:23;18.70;;;11.70;;
10945;SDS011;5525;42.648;23.368;2023-01-15T07:22:50;19.85;;;11.85;;
10945;SDS011;5525;42.648;23.368;2023-01-15T07:25:17;19.88;;;11.85;;
10945;SDS011;5525;42.648;23.368;2023-01-15T07:27:44;20.80;;;12.30;;
10945;SDS011;5525;42.648;23.368;2023-01-15T07:30:12;17.55;;;11.30;;
10945;SDS011;5525;42.648;23.368;2023-01-15T07:32:39;19.73;;;11.73;;
10945;SDS011;5525;42.648;23.368;2023-01-15T07:35:08;18.95;;;12.52;;
10945;SDS011;5525;42.648;23.368;2023-01-15T07:37:35;21.40;;;12.50;;
10945;SDS011;5525;42.648;23.368;2023-01-15T07:40:04;20.17;;;12.18;;
10945;SDS011;5525;42.648;23.368;2023-01-15T07:42:31;19.83;;;12.20;;
10945;SDS011;5525;42.648;23.368;2023-01-15T07:45:21;15.98;;;10.25;;
10945;SDS011;5525;42.648;23.368;2023-01-15T07:48:09;20.23;;;11.05;;
10945;SDS011;5525;42.648;23.368;2023-01-15T07:50:56;17.40;;;11.00;;
10945;SDS011;5525;42.648;23.368;2023-01-15T07:53:23;22.33;;;11.95;;
10945;SDS011;5525;42.648;23.368;2023-01-15T07:55:50;20.27;;;11.75;;
10945;SDS011;5525;42.648;23.368;2023-01-15T07:58:19;17.40;;;10.15;;
10945;SDS011;5525;42.648;23.368;2023-01-15T08:00:46;13.20;;;9.32;;
10945;SDS011;5525;42.648;23.368;2023-01-15T08:03:16;20.17;;;8.82;;
10945;SDS011;5525;42.648;23.368;2023-01-15T08:05:45;13.98;;;9.05;;
10945;SDS011;5525;42.648;23.368;2023-01-15T08:08:16;14.48;;;8.60;;
10945;SDS011;5525;42.648;23.368;2023-01-15T08:10:46;15.88;;;9.45;;
10945;SDS011;5525;42.648;23.368;2023-01-15T08:13:27;14.07;;;9.23;;
10945;SDS011;5525;42.648;23.368;2023-01-15T08:16:11;18.40;;;10.88;;
10945;SDS011;5525;42.648;23.368;2023-01-15T08:18:42;18.33;;;9.88;;
10945;SDS011;5525;42.648;23.368;2023-01-15T08:21:14;18.17;;;9.93;;
10945;SDS011;5525;42.648;23.368;2023-01-15T08:23:43;18.25;;;10.45;;
10945;SDS011;5525;42.648;23.368;2023-01-15T08:26:10;17.83;;;11.30;;
10945;SDS011;5525;42.648;23.368;2023-01-15T08:28:43;15.77;;;10.25;;
10945;SDS011;5525;42.648;23.368;2023-01-15T08:31:13;25.30;;;14.90;;
10945;SDS011;5525;42.648;23.368;2023-01-15T08:33:40;24.52;;;13.45;;
10945;SDS011;5525;42.648;23.368;2023-01-15T08:36:07;21.85;;;12.23;;
10945;SDS011;5525;42.648;23.368;2023-01-15T08:38:34;18.83;;;12.05;;
10945;SDS011;5525;42.648;23.368;2023-01-15T08:41:04;18.83;;;12.88;;
10945;SDS011;5525;42.648;23.368;2023-01-15T08:43:32;22.73;;;14.52;;
10945;SDS011;5525;42.648;23.368;2023-01-15T08:45:59;24.27;;;13.85;;
10945;SDS011;5525;42.648;23.368;2023-01-15T08:48:28;27.67;;;14.80;;
10945;SDS011;5525;42.648;23.368;2023-01-15T08:50:56;20.88;;;13.32;;
10945;SDS011;5525;42.648;23.368;2023-01-15T08:53:24;17.58;;;11.45;;
10945;SDS011;5525;42.648;23.368;2023-01-15T08:55:54;19.15;;;12.68;;
10945;SDS011;5525;42.648;23.368;2023-01-15T08:58:25;23.80;;;13.73;;
10945;SDS011;5525;42.648;23.368;2023-01-15T09:00:53;22.73;;;14.90;;
10945;SDS011;5525;42.648;23.368;2023-01-15T09:03:20;25.48;;;14.30;;
10945;SDS011;5525;42.648;23.368;2023-01-15T09:05:47;21.77;;;14.07;;
10945;SDS011;5525;42.648;23.368;2023-01-15T09:08:14;18.77;;;12.60;;
10945;SDS011;5525;42.648;23.368;2023-01-15T09:10:41;15.43;;;10.00;;
10945;SDS011;5525;42.648;23.368;2023-01-15T09:13:16;16.15;;;10.95;;
10945;SDS011;5525;42.648;23.368;2023-01-15T09:15:46;16.73;;;10.60;;
10945;SDS011;5525;42.648;23.368;2023-01-15T09:18:16;12.35;;;9.25;;
10945;SDS011;5525;42.648;23.368;2023-01-15T09:20:47;14.40;;;10.48;;
10945;SDS011;5525;42.648;23.368;2023-01-15T09:23:15;19.92;;;10.07;;
10945;SDS011;5525;42.648;23.368;2023-01-15T09:25:49;18.20;;;11.70;;
10945;SDS011;5525;42.648;23.368;2023-01-15T09:28:17;14.63;;;10.65;;
10945;SDS011;5525;42.648;23.368;2023-01-15T09:30:43;20.10;;;10.73;;
10945;SDS011;5525;42.648;23.368;2023-01-15T09:33:12;14.65;;;10.32;;
10945;SDS011;5525;42.648;23.368;2023-01-15T09:35:39;21.95;;;11.65;;
10945;SDS011;5525;42.648;23.368;2023-01-15T09:38:05;14.48;;;10.68;;
10945;SDS011;5525;42.648;23.368;2023-01-15T09:40:39;25.70;;;11.80;;
10945;SDS011;5525;42.648;23.368;2023-01-15T09:43:14;23.88;;;11.95;;
10945;SDS011;5525;42.648;23.368;2023-01-15T09:45:53;18.55;;;12.38;;
10945;SDS011;5525;42.648;23.368;2023-01-15T09:48:28;20.20;;;12.65;;
10945;SDS011;5525;42.648;23.368;2023-01-15T09:51:03;20.88;;;13.68;;
10945;SDS011;5525;42.648;23.368;2023-01-15T09:53:57;22.85;;;13.68;;
10945;SDS011;5525;42.648;23.368;2023-01-15T09:56:37;19.52;;;13.38;;
10945;SDS011;5525;42.648;23.368;2023-01-15T09:59:04;19.88;;;13.73;;
10945;SDS011;5525;42.648;23.368;2023-01-15T10:01:41;19.25;;;12.95;;
10945;SDS011;5525;42.648;23.368;2023-01-15T10:04:12;19.60;;;12.07;;
10945;SDS011;5525;42.648;23.368;2023-01-15T10:06:49;21.50;;;12.90;;
10945;SDS011;5525;42.648;23.368;2023-01-15T10:09:24;21.27;;;13.63;;
10945;SDS011;5525;42.648;23.368;2023-01-15T10:11:57;23.48;;;13.85;;
10945;SDS011;5525;42.648;23.368;2023-01-15T10:14:44;25.77;;;14.07;;
10945;SDS011;5525;42.648;23.368;2023-01-15T10:17:21;23.80;;;14.45;;
10945;SDS011;5525;42.648;23.368;2023-01-15T10:19:53;21.30;;;13.95;;
10945;SDS011;5525;42.648;23.368;2023-01-15T10:22:26;22.60;;;13.23;;
10945;SDS011;5525;42.648;23.368;2023-01-15T10:25:13;20.23;;;13.50;;
10945;SDS011;5525;42.648;23.368;2023-01-15T10:27:42;21.15;;;12.73;;
10945;SDS011;5525;42.648;23.368;2023-01-15T10:30:14;20.80;;;12.95;;
10945;SDS011;5525;42.648;23.368;2023-01-15T10:32:49;48.58;;;18.98;;
10945;SDS011;5525;42.648;23.368;2023-01-15T10:35:23;15.60;;;11.10;;
10945;SDS011;5525;42.648;23.368;2023-01-15T10:37:57;17.00;;;10.93;;
10945;SDS011;5525;42.648;23.368;2023-01-15T10:40:38;20.50;;;12.98;;
10945;SDS011;5525;42.648;23.368;2023-01-15T10:43:15;18.02;;;10.80;;
10945;SDS011;5525;42.648;23.368;2023-01-15T10:45:49;15.60;;;9.60;;
10945;SDS011;5525;42.648;23.368;2023-01-15T10:48:23;17.60;;;11.57;;
10945;SDS011;5525;42.648;23.368;2023-01-15T10:50:56;18.45;;;11.63;;
10945;SDS011;5525;42.648;23.368;2023-01-15T10:53:28;20.75;;;12.20;;
10945;SDS011;5525;42.648;23.368;2023-01-15T10:56:02;19.48;;;12.00;;
10945;SDS011;5525;42.648;23.368;2023-01-15T10:58:38;17.75;;;11.80;;
10945;SDS011;5525;42.648;23.368;2023-01-15T11:01:10;17.25;;;11.68;;
10945;SDS011;5525;42.648;23.368;2023-01-15T11:03:41;23.25;;;14.82;;
10945;SDS011;5525;42.648;23.368;2023-01-15T11:06:12;15.10;;;9.98;;
10945;SDS011;5525;42.648;23.368;2023-01-15T11:08:41;15.82;;;10.82;;
10945;SDS011;5525;42.648;23.368;2023-01-15T11:11:21;17.42;;;11.43;;
10945;SDS011;5525;42.648;23.368;2023-01-15T11:14:18;15.85;;;11.00;;
10945;SDS011;5525;42.648;23.368;2023-01-15T11:17:02;23.50;;;10.98;;
10945;SDS011;5525;42.648;23.368;2023-01-15T11:19:58;17.00;;;10.35;;
10945;SDS011;5525;42.648;23.368;2023-01-15T11:22:25;11.85;;;8.60;;
10945;SDS011;5525;42.648;23.368;2023-01-15T11:24:54;12.30;;;9.35;;
10945;SDS011;5525;42.648;23.368;2023-01-15T11:27:25;16.20;;;10.55;;
10945;SDS011;5525;42.648;23.368;2023-01-15T11:29:59;13.95;;;9.48;;
10945;SDS011;5525;42.648;23.368;2023-01-15T11:32:28;14.88;;;9.50;;
10945;SDS011;5525;42.648;23.368;2023-01-15T11:34:57;13.48;;;9.48;;
10945;SDS011;5525;42.648;23.368;2023-01-15T11:37:25;14.80;;;10.15;;
10945;SDS011;5525;42.648;23.368;2023-01-15T11:39:59;14.32;;;10.18;;
10945;SDS011;5525;42.648;23.368;2023-01-15T11:42:31;18.05;;;10.88;;
10945;SDS011;5525;42.648;23.368;2023-01-15T11:45:18;12.15;;;8.38;;
10945;SDS011;5525;42.648;23.368;2023-01-15T11:48:12;13.35;;;8.45;;
10945;SDS011;5525;42.648;23.368;2023-01-15T11:51:00;11.52;;;7.93;;
10945;SDS011;5525;42.648;23.368;2023-01-15T11:53:31;11.13;;;8.05;;
10945;SDS011;5525;42.648;23.368;2023-01-15T11:56:07;10.63;;;7.45;;
10945;SDS011;5525;42.648;23.368;2023-01-15T11:58:42;9.95;;;6.97;;
10945;SDS011;5525;42.648;23.368;2023-01-15T12:01:21;8.55;;;6.65;;
10945;SDS011;5525;42.648;23.368;2023-01-15T12:03:50;9.98;;;7.28;;
10945;SDS011;5525;42.648;23.368;2023-01-15T12:06:21;11.32;;;7.03;;
10945;SDS011;5525;42.648;23.368;2023-01-15T12:08:55;10.60;;;7.72;;
10945;SDS011;5525;42.648;23.368;2023-01-15T12:11:45;12.50;;;7.65;;
10945;SDS011;5525;42.648;23.368;2023-01-15T12:17:27;13.10;;;8.98;;
10945;SDS011;5525;42.648;23.368;2023-01-15T12:20:04;16.42;;;10.10;;
10945;SDS011;5525;42.648;23.368;2023-01-15T12:22:49;11.18;;;7.70;;
10945;SDS011;5525;42.648;23.368;2023-01-15T12:25:28;9.00;;;6.85;;
10945;SDS011;5525;42.648;23.368;2023-01-15T12:28:03;11.13;;;7.43;;
10945;SDS011;5525;42.648;23.368;2023-01-15T12:30:47;11.50;;;7.68;;
10945;SDS011;5525;42.648;23.368;2023-01-15T12:33:31;17.33;;;8.43;;
10945;SDS011;5525;42.648;23.368;2023-01-15T12:36:10;13.55;;;7.18;;
10945;SDS011;5525;42.648;23.368;2023-01-15T12:38:45;9.60;;;6.57;;
10945;SDS011;5525;42.648;23.368;2023-01-15T12:41:22;10.27;;;6.85;;
10945;SDS011;5525;42.648;23.368;2023-01-15T12:44:15;9.32;;;6.78;;
10945;SDS011;5525;42.648;23.368;2023-01-15T12:47:07;9.70;;;6.75;;
10945;SDS011;5525;42.648;23.368;2023-01-15T12:49:45;9.45;;;6.78;;
10945;SDS011;5525;42.648;23.368;2023-01-15T12:52:18;9.25;;;6.47;;
10945;SDS011;5525;42.648;23.368;2023-01-15T12:54:51;8.48;;;7.13;;
10945;SDS011;5525;42.648;23.368;2023-01-15T12:57:35;7.47;;;6.20;;
10945;SDS011;5525;42.648;23.368;2023-01-15T13:00:09;9.57;;;7.10;;
10945;SDS011;5525;42.648;23.368;2023-01-15T13:02:53;8.73;;;6.57;;
10945;SDS011;5525;42.648;23.368;2023-01-15T13:05:33;8.70;;;6.03;;
10945;SDS011;5525;42.648;23.368;2023-01-15T13:08:07;9.48;;;7.32;;
10945;SDS011;5525;42.648;23.368;2023-01-15T13:10:45;8.75;;;7.13;;
10945;SDS011;5525;42.648;23.368;2023-01-15T13:13:16;9.73;;;6.72;;
10945;SDS011;5525;42.648;23.368;2023-01-15T13:18:35;11.10;;;7.95;;
10945;SDS011;5525;42.648;23.368;2023-01-15T13:21:11;9.82;;;7.10;;
10945;SDS011;5525;42.648;23.368;2023-01-15T13:23:49;14.43;;;8.25;;
10945;SDS011;5525;42.648;23.368;2023-01-15T13:26:52;18.75;;;10.25;;
10945;SDS011;5525;42.648;23.368;2023-01-15T13:29:32;13.63;;;9.32;;
10945;SDS011;5525;42.648;23.368;2023-01-15T13:32:10;11.13;;;8.30;;
10945;SDS011;5525;42.648;23.368;2023-01-15T13:34:42;10.93;;;8.48;;
10945;SDS011;5525;42.648;23.368;2023-01-15T13:37:17;13.75;;;9.20;;
10945;SDS011;5525;42.648;23.368;2023-01-15T13:39:48;11.93;;;8.05;;
10945;SDS011;5525;42.648;23.368;2023-01-15T13:42:18;12.75;;;8.32;;
10945;SDS011;5525;42.648;23.368;2023-01-15T13:45:04;10.68;;;8.70;;
10945;SDS011;5525;42.648;23.368;2023-01-15T13:47:47;12.95;;;8.30;;
10945;SDS011;5525;42.648;23.368;2023-01-15T13:50:26;11.68;;;7.63;;
10945;SDS011;5525;42.648;23.368;2023-01-15T13:53:00;9.82;;;7.20;;
10945;SDS011;5525;42.648;23.368;2023-01-15T13:55:32;11.55;;;7.90;;
10945;SDS011;5525;42.648;23.368;2023-01-15T13:58:01;11.07;;;8.00;;
10945;SDS011;5525;42.648;23.368;2023-01-15T14:00:29;11.63;;;7.95;;
10945;SDS011;5525;42.648;23.368;2023-01-15T14:02:57;9.85;;;7.55;;
10945;SDS011;5525;42.648;23.368;2023-01-15T14:05:29;11.25;;;7.65;;
10945;SDS011;5525;42.648;23.368;2023-01-15T14:07:57;9.75;;;6.90;;
10945;SDS011;5525;42.648;23.368;2023-01-15T14:10:34;11.52;;;7.50;;
10945;SDS011;5525;42.648;23.368;2023-01-15T14:13:18;11.55;;;7.72;;
10945;SDS011;5525;42.648;23.368;2023-01-15T14:16:21;10.98;;;8.10;;
10945;SDS011;5525;42.648;23.368;2023-01-15T14:19:12;10.32;;;7.43;;
10945;SDS011;5525;42.648;23.368;2023-01-15T14:22:06;10.85;;;7.65;;
10945;SDS011;5525;42.648;23.368;2023-01-15T14:28:09;10.63;;;6.95;;
10945;SDS011;5525;42.648;23.368;2023-01-15T14:30:56;8.82;;;6.75;;
10945;SDS011;5525;42.648;23.368;2023-01-15T14:33:41;11.00;;;7.82;;
10945;SDS011;5525;42.648;23.368;2023-01-15T14:36:19;11.85;;;8.30;;
10945;SDS011;5525;42.648;23.368;2023-01-15T14:38:52;13.02;;;8.95;;
10945;SDS011;5525;42.648;23.368;2023-01-15T14:41:25;23.58;;;16.35;;
10945;SDS011;5525;42.648;23.368;2023-01-15T14:43:57;15.35;;;10.27;;
10945;SDS011;5525;42.648;23.368;2023-01-15T14:46:27;13.40;;;9.48;;
10945;SDS011;5525;42.648;23.368;2023-01-15T14:48:58;14.10;;;9.20;;
10945;SDS011;5525;42.648;23.368;2023-01-15T14:51:26;15.60;;;10.35;;
10945;SDS011;5525;42.648;23.368;2023-01-15T14:53:55;14.38;;;9.48;;
10945;SDS011;5525;42.648;23.368;2023-01-15T14:56:26;15.13;;;9.65;;
10945;SDS011;5525;42.648;23.368;2023-01-15T14:58:58;14.93;;;9.45;;
10945;SDS011;5525;42.648;23.368;2023-01-15T15:01:37;14.02;;;8.82;;
10945;SDS011;5525;42.648;23.368;2023-01-15T15:04:19;13.70;;;9.88;;